createdAt,value
2023-01-28T00:02:26.339Z,102278.38
2023-01-28T00:04:54.443Z,102278.63
2023-01-28T00:07:24.027Z,102277.38
2023-01-28T00:09:51.872Z,102282.50
2023-01-28T00:12:19.699Z,102284.94
2023-01-28T00:14:47.928Z,102281.38
2023-01-28T00:17:16.123Z,102284.47
2023-01-28T00:19:44.816Z,102276.09
2023-01-28T00:22:12.579Z,102282.03
2023-01-28T00:24:41.834Z,102275.81
2023-01-28T00:27:09.535Z,102274.28
2023-01-28T00:29:37.759Z,102264.28
2023-01-28T00:32:07.564Z,102285.47
2023-01-28T00:34:35.300Z,102276.59
2023-01-28T00:37:03.026Z,102276.22
2023-01-28T00:39:32.260Z,102276.41
2023-01-28T00:42:03.799Z,102275.72
2023-01-28T00:44:31.499Z,102281.22
2023-01-28T00:46:59.227Z,102280.06
2023-01-28T00:49:26.917Z,102280.19
2023-01-28T00:51:54.580Z,102273.22
2023-01-28T00:54:22.352Z,102272.34
2023-01-28T00:56:50.144Z,102286.84
2023-01-28T00:59:19.411Z,102273.56
2023-01-28T01:01:48.525Z,102274.88
2023-01-28T01:04:26.312Z,102281.72
2023-01-28T01:06:54.551Z,102278.34
2023-01-28T01:09:22.858Z,102273.03
2023-01-28T01:11:50.560Z,102275.81
2023-01-28T01:14:19.687Z,102275.88
2023-01-28T01:16:47.545Z,102282.88
2023-01-28T01:19:15.717Z,102279.31
2023-01-28T01:21:44.166Z,102273.88
2023-01-28T01:24:14.129Z,102274.53
2023-01-28T01:26:42.708Z,102261.84
2023-01-28T01:29:10.810Z,102265.56
2023-01-28T01:31:40.083Z,102261.50
2023-01-28T01:34:07.866Z,102260.66
2023-01-28T01:36:36.005Z,102277.34
2023-01-28T01:39:03.874Z,102280.69
2023-01-28T01:41:33.771Z,102273.59
2023-01-28T01:44:02.750Z,102283.81
2023-01-28T01:46:36.232Z,102276.63
2023-01-28T01:49:14.309Z,102279.25
2023-01-28T01:51:42.792Z,102287.03
2023-01-28T01:54:10.736Z,102287.13
2023-01-28T01:56:44.053Z,102282.47
2023-01-28T01:59:16.436Z,102282.69
2023-01-28T02:01:46.743Z,102288.19
2023-01-28T02:04:21.543Z,102287.91
2023-01-28T02:06:50.195Z,102293.59
2023-01-28T02:09:29.915Z,102294.69
2023-01-28T02:12:02.364Z,102303.69
2023-01-28T02:14:36.034Z,102300.22
2023-01-28T02:17:04.305Z,102307.38
2023-01-28T02:19:38.896Z,102307.09
2023-01-28T02:22:30.361Z,102310.03
2023-01-28T02:25:29.343Z,102303.13
2023-01-28T02:28:14.828Z,102305.25
2023-01-28T02:30:53.118Z,102305.88
2023-01-28T02:33:31.365Z,102305.75
2023-01-28T02:36:09.357Z,102299.28
2023-01-28T02:38:42.702Z,102298.94
2023-01-28T02:41:19.601Z,102298.88
2023-01-28T02:43:50.823Z,102296.28
2023-01-28T02:46:41.620Z,102287.56
2023-01-28T02:49:15.636Z,102290.81
2023-01-28T02:52:01.935Z,102285.84
2023-01-28T02:54:38.089Z,102281.22
2023-01-28T02:57:17.605Z,102284.75
2023-01-28T02:59:55.291Z,102285.22
2023-01-28T03:02:30.497Z,102275.63
2023-01-28T03:05:05.092Z,102279.56
2023-01-28T03:07:37.524Z,102277.50
2023-01-28T03:10:09.419Z,102293.72
2023-01-28T03:12:58.793Z,102291.97
2023-01-28T03:15:50.378Z,102286.50
2023-01-28T03:18:40.572Z,102279.94
2023-01-28T03:21:29.960Z,102284.97
2023-01-28T03:24:18.874Z,102272.50
2023-01-28T03:27:14.639Z,102279.19
2023-01-28T03:30:04.104Z,102267.94
2023-01-28T03:32:52.775Z,102266.00
2023-01-28T03:35:41.887Z,102271.84
2023-01-28T03:38:21.042Z,102276.25
2023-01-28T03:40:53.182Z,102277.88
2023-01-28T03:43:21.199Z,102274.78
2023-01-28T03:45:51.336Z,102282.56
2023-01-28T03:48:21.259Z,102284.09
2023-01-28T03:50:49.266Z,102281.38
2023-01-28T03:53:17.206Z,102279.72
2023-01-28T03:55:52.251Z,102294.38
2023-01-28T03:58:20.974Z,102281.06
2023-01-28T04:00:49.068Z,102295.31
2023-01-28T04:03:21.073Z,102293.66
2023-01-28T04:06:17.836Z,102279.09
2023-01-28T04:09:21.714Z,102290.63
2023-01-28T04:11:55.670Z,102287.19
2023-01-28T04:14:34.811Z,102299.84
2023-01-28T04:17:12.862Z,102302.69
2023-01-28T04:19:42.522Z,102297.28
2023-01-28T04:22:12.070Z,102301.13
2023-01-28T04:24:41.598Z,102310.91
2023-01-28T04:27:09.917Z,102312.22
2023-01-28T04:29:37.713Z,102311.25
2023-01-28T04:32:23.852Z,102309.97
2023-01-28T04:35:10.942Z,102306.19
2023-01-28T04:37:50.832Z,102310.28
2023-01-28T04:40:32.599Z,102317.84
2023-01-28T04:43:11.276Z,102320.63
2023-01-28T04:45:54.681Z,102317.28
2023-01-28T04:48:54.764Z,102318.19
2023-01-28T04:51:48.861Z,102314.00
2023-01-28T04:54:31.070Z,102317.34
2023-01-28T04:57:02.370Z,102323.06
2023-01-28T04:59:30.906Z,102322.28
2023-01-28T05:01:58.697Z,102326.66
2023-01-28T05:04:27.443Z,102327.06
2023-01-28T05:06:56.660Z,102328.53
2023-01-28T05:09:28.727Z,102330.13
2023-01-28T05:11:57.384Z,102328.94
2023-01-28T05:14:25.277Z,102324.41
2023-01-28T05:17:05.442Z,102324.25
2023-01-28T05:19:33.831Z,102329.00
2023-01-28T05:22:04.645Z,102317.28
2023-01-28T05:24:38.145Z,102316.34
2023-01-28T05:27:07.467Z,102311.03
2023-01-28T05:29:35.663Z,102318.44
2023-01-28T05:32:03.443Z,102321.94
2023-01-28T05:34:32.513Z,102309.97
2023-01-28T05:37:06.959Z,102309.00
2023-01-28T05:39:39.235Z,102305.03
2023-01-28T05:42:07.102Z,102310.44
2023-01-28T05:44:37.947Z,102305.78
2023-01-28T05:47:37.597Z,102302.47
2023-01-28T05:50:17.502Z,102306.94
2023-01-28T05:53:07.695Z,102311.13
2023-01-28T05:55:39.798Z,102314.44
2023-01-28T05:58:07.690Z,102323.53
2023-01-28T06:00:36.355Z,102316.44
2023-01-28T06:03:05.822Z,102314.31
2023-01-28T06:05:36.376Z,102319.00
2023-01-28T06:08:04.726Z,102310.91
2023-01-28T06:10:34.243Z,102314.06
2023-01-28T06:13:02.203Z,102316.44
2023-01-28T06:15:44.035Z,102316.19
2023-01-28T06:18:35.226Z,102320.44
2023-01-28T06:21:03.131Z,102322.03
2023-01-28T06:23:31.650Z,102316.91
2023-01-28T06:26:00.912Z,102318.75
2023-01-28T06:28:28.934Z,102314.44
2023-01-28T06:30:56.985Z,102319.47
2023-01-28T06:33:24.836Z,102321.38
2023-01-28T06:35:52.558Z,102329.47
2023-01-28T06:38:20.441Z,102329.88
2023-01-28T06:40:52.489Z,102323.84
2023-01-28T06:43:21.560Z,102321.09
2023-01-28T06:45:49.406Z,102325.28
2023-01-28T06:48:17.082Z,102323.41
2023-01-28T06:50:44.752Z,102328.03
2023-01-28T06:53:12.483Z,102338.50
2023-01-28T06:55:40.453Z,102329.97
2023-01-28T06:58:08.185Z,102318.22
2023-01-28T07:00:37.727Z,102331.44
2023-01-28T07:03:05.861Z,102325.44
2023-01-28T07:05:33.750Z,102331.75
2023-01-28T07:08:02.186Z,102332.66
2023-01-28T07:10:30.250Z,102331.50
2023-01-28T07:12:58.110Z,102322.69
2023-01-28T07:15:25.956Z,102324.25
2023-01-28T07:17:55.075Z,102316.56
2023-01-28T07:20:23.254Z,102317.56
2023-01-28T07:22:51.035Z,102316.78
2023-01-28T07:25:18.939Z,102331.75
2023-01-28T07:27:48.862Z,102332.59
2023-01-28T07:30:17.997Z,102337.03
2023-01-28T07:32:46.432Z,102326.81
2023-01-28T07:35:15.977Z,102333.44
2023-01-28T07:37:43.747Z,102333.78
2023-01-28T07:40:13.218Z,102329.09
2023-01-28T07:42:42.382Z,102331.34
2023-01-28T07:45:13.154Z,102332.53
2023-01-28T07:47:40.939Z,102335.53
2023-01-28T07:50:10.278Z,102340.19
2023-01-28T07:52:44.351Z,102344.25
2023-01-28T07:55:15.487Z,102347.56
2023-01-28T07:57:50.664Z,102341.31
2023-01-28T08:00:19.588Z,102335.09
2023-01-28T08:02:48.970Z,102344.56
2023-01-28T08:05:21.548Z,102338.47
2023-01-28T08:07:50.931Z,102344.97
2023-01-28T08:10:19.881Z,102343.09
2023-01-28T08:12:54.125Z,102349.59
2023-01-28T08:15:22.207Z,102356.72
2023-01-28T08:17:49.971Z,102357.72
2023-01-28T08:20:18.717Z,102361.19
2023-01-28T08:22:46.703Z,102371.69
2023-01-28T08:25:16.187Z,102375.59
2023-01-28T08:27:44.083Z,102382.38
2023-01-28T08:30:13.284Z,102383.78
2023-01-28T08:32:41.272Z,102383.09
2023-01-28T08:35:09.684Z,102384.56
2023-01-28T08:37:37.401Z,102386.34
2023-01-28T08:40:06.052Z,102382.81
2023-01-28T08:42:35.114Z,102383.78
2023-01-28T08:45:02.894Z,102392.34
2023-01-28T08:47:30.575Z,102399.19
2023-01-28T08:49:58.336Z,102400.44
2023-01-28T08:52:26.123Z,102402.25
2023-01-28T08:54:53.867Z,102398.22
2023-01-28T08:57:21.738Z,102408.03
2023-01-28T08:59:50.829Z,102416.50
2023-01-28T09:02:30.801Z,102419.06
2023-01-28T09:04:59.591Z,102419.56
2023-01-28T09:07:27.321Z,102415.75
2023-01-28T09:09:55.065Z,102416.88
2023-01-28T09:12:22.932Z,102413.09
2023-01-28T09:14:52.944Z,102423.78
2023-01-28T09:17:22.291Z,102431.25
2023-01-28T09:19:51.346Z,102440.91
2023-01-28T09:25:45.140Z,102446.94
2023-01-28T09:28:18.131Z,102455.47
2023-01-28T09:34:22.482Z,102457.63
2023-01-28T09:39:52.319Z,102476.84
2023-01-28T09:42:58.248Z,102473.84
2023-01-28T09:45:38.888Z,102471.06
2023-01-28T09:48:32.857Z,102463.56
2023-01-28T09:51:02.029Z,102460.91
2023-01-28T09:53:32.351Z,102453.94
2023-01-28T09:56:03.712Z,102458.03
2023-01-28T09:58:32.529Z,102457.50
2023-01-28T10:01:07.553Z,102462.06
2023-01-28T10:03:48.623Z,102467.06
2023-01-28T10:06:27.310Z,102482.34
2023-01-28T10:09:15.634Z,102476.19
2023-01-28T10:12:00.602Z,102466.31
2023-01-28T10:14:38.799Z,102473.50
2023-01-28T10:17:13.328Z,102455.66
2023-01-28T10:19:48.526Z,102465.38
2023-01-28T10:22:23.672Z,102464.25
2023-01-28T10:25:01.926Z,102459.06
2023-01-28T10:27:32.253Z,102445.31
2023-01-28T10:30:01.097Z,102462.28
2023-01-28T10:32:31.303Z,102447.75
2023-01-28T10:35:01.733Z,102446.31
2023-01-28T10:37:30.404Z,102444.03
2023-01-28T10:40:00.052Z,102449.25
2023-01-28T10:42:30.499Z,102461.88
2023-01-28T10:45:01.766Z,102465.25
2023-01-28T10:47:34.058Z,102448.25
2023-01-28T10:50:06.224Z,102456.50
2023-01-28T10:52:34.017Z,102457.75
2023-01-28T10:55:03.308Z,102471.31
2023-01-28T10:57:31.045Z,102469.31
2023-01-28T10:59:58.829Z,102460.41
2023-01-28T11:02:32.969Z,102457.88
2023-01-28T11:05:17.865Z,102460.56
2023-01-28T11:07:46.030Z,102460.91
2023-01-28T11:10:27.081Z,102451.00
2023-01-28T11:12:58.868Z,102449.34
2023-01-28T11:15:27.458Z,102451.31
2023-01-28T11:17:59.630Z,102446.94
2023-01-28T11:20:32.114Z,102452.25
2023-01-28T11:22:59.955Z,102451.31
2023-01-28T11:25:32.030Z,102444.50
2023-01-28T11:28:01.866Z,102451.38
2023-01-28T11:30:32.515Z,102447.28
2023-01-28T11:33:07.509Z,102455.88
2023-01-28T11:35:36.690Z,102462.72
2023-01-28T11:38:04.539Z,102442.38
2023-01-28T11:40:32.415Z,102435.31
2023-01-28T11:43:01.023Z,102433.25
2023-01-28T11:45:41.104Z,102432.31
2023-01-28T11:48:24.328Z,102419.47
2023-01-28T11:50:58.920Z,102406.53
2023-01-28T11:53:53.796Z,102410.81
2023-01-28T11:56:33.001Z,102399.25
2023-01-28T11:59:11.679Z,102395.47
2023-01-28T12:01:48.763Z,102390.53
2023-01-28T12:04:34.741Z,102394.63
2023-01-28T12:07:21.412Z,102407.16
2023-01-28T12:09:57.876Z,102399.13
2023-01-28T12:12:46.077Z,102405.84
2023-01-28T12:15:39.890Z,102390.50
2023-01-28T12:18:19.396Z,102388.81
2023-01-28T12:20:58.004Z,102366.53
2023-01-28T12:23:46.120Z,102352.06
2023-01-28T12:26:17.384Z,102335.44
2023-01-28T12:29:06.525Z,102315.16
2023-01-28T12:31:49.064Z,102312.91
2023-01-28T12:34:38.999Z,102303.38
2023-01-28T12:37:15.335Z,102286.34
2023-01-28T12:39:56.506Z,102288.22
2023-01-28T12:42:32.368Z,102284.13
2023-01-28T12:45:05.932Z,102276.75
2023-01-28T12:47:40.400Z,102280.88
2023-01-28T12:50:15.663Z,102264.25
2023-01-28T12:52:48.270Z,102253.13
2023-01-28T12:55:21.619Z,102269.00
2023-01-28T12:57:52.158Z,102283.88
2023-01-28T13:00:27.561Z,102292.63
2023-01-28T13:03:06.309Z,102305.34
2023-01-28T13:05:39.405Z,102303.13
2023-01-28T13:08:13.929Z,102298.28
2023-01-28T13:10:44.881Z,102280.44
2023-01-28T13:13:19.447Z,102270.00
2023-01-28T13:15:47.835Z,102291.66
2023-01-28T13:18:46.699Z,102287.53
2023-01-28T13:21:32.423Z,102291.91
2023-01-28T13:24:19.527Z,102303.78
2023-01-28T13:26:50.679Z,102310.31
2023-01-28T13:29:32.665Z,102319.56
2023-01-28T13:32:01.882Z,102326.75
2023-01-28T13:34:36.927Z,102329.31
2023-01-28T13:37:15.631Z,102333.06
2023-01-28T13:39:49.352Z,102330.28
2023-01-28T13:42:26.934Z,102344.41
2023-01-28T13:44:54.951Z,102341.22
2023-01-28T13:47:28.285Z,102343.88
2023-01-28T13:49:59.323Z,102349.00
2023-01-28T13:52:31.810Z,102347.88
2023-01-28T13:55:04.588Z,102328.22
2023-01-28T13:58:02.176Z,102338.75
2023-01-28T14:00:38.342Z,102333.31
2023-01-28T14:04:09.193Z,102330.69
2023-01-28T14:06:54.181Z,102329.59
2023-01-28T14:09:37.615Z,102326.19
2023-01-28T14:12:43.491Z,102318.91
2023-01-28T14:15:22.837Z,102287.56
2023-01-28T14:17:54.841Z,102274.44
2023-01-28T14:20:27.634Z,102272.09
2023-01-28T14:23:01.088Z,102274.13
2023-01-28T14:25:35.196Z,102271.06
2023-01-28T14:28:06.062Z,102267.44
2023-01-28T14:30:44.543Z,102268.00
2023-01-28T14:33:14.145Z,102282.72
2023-01-28T14:35:47.477Z,102287.47
2023-01-28T14:38:18.773Z,102300.47
2023-01-28T14:40:46.934Z,102300.13
2023-01-28T14:43:19.331Z,102310.16
2023-01-28T14:46:05.157Z,102313.53
2023-01-28T14:48:39.996Z,102310.69
2023-01-28T14:51:33.860Z,102303.69
2023-01-28T14:54:32.140Z,102312.63
2023-01-28T14:57:38.726Z,102308.50
2023-01-28T15:00:18.808Z,102306.53
2023-01-28T15:02:46.955Z,102305.84
2023-01-28T15:05:19.855Z,102304.78
2023-01-28T15:07:49.019Z,102314.63
2023-01-28T15:10:20.386Z,102318.44
2023-01-28T15:12:53.570Z,102323.03
2023-01-28T15:15:30.614Z,102322.91
2023-01-28T15:18:02.895Z,102333.19
2023-01-28T15:20:33.049Z,102330.53
2023-01-28T15:23:03.370Z,102332.16
2023-01-28T15:25:31.439Z,102334.41
2023-01-28T15:28:02.275Z,102339.81
2023-01-28T15:30:32.562Z,102347.19
2023-01-28T15:33:02.891Z,102341.81
2023-01-28T15:35:33.630Z,102346.34
2023-01-28T15:38:01.468Z,102335.84
2023-01-28T15:40:31.241Z,102338.88
2023-01-28T15:42:59.216Z,102326.94
2023-01-28T15:45:29.444Z,102331.72
2023-01-28T15:48:06.436Z,102337.00
2023-01-28T15:50:35.923Z,102332.22
2023-01-28T15:53:08.870Z,102336.91
2023-01-28T15:55:39.420Z,102337.47
2023-01-28T15:58:29.475Z,102345.59
2023-01-28T16:01:13.815Z,102351.50
2023-01-28T16:03:44.818Z,102352.31
2023-01-28T16:06:18.408Z,102365.09
2023-01-28T16:08:52.181Z,102370.75
2023-01-28T16:11:26.220Z,102368.66
2023-01-28T16:13:54.837Z,102370.34
2023-01-28T16:16:29.512Z,102368.94
2023-01-28T16:18:58.225Z,102373.25
2023-01-28T16:21:29.945Z,102379.41
2023-01-28T16:24:03.028Z,102385.41
2023-01-28T16:26:32.974Z,102387.63
2023-01-28T16:29:02.659Z,102394.06
2023-01-28T16:31:30.737Z,102390.22
2023-01-28T16:33:58.625Z,102383.03
2023-01-28T16:36:27.823Z,102365.31
2023-01-28T16:38:55.694Z,102355.50
2023-01-28T16:41:29.212Z,102346.81
2023-01-28T16:43:57.123Z,102335.91
2023-01-28T16:46:27.794Z,102320.09
2023-01-28T16:48:55.599Z,102331.66
2023-01-28T16:51:23.908Z,102321.88
2023-01-28T16:53:53.257Z,102329.19
2023-01-28T16:56:44.034Z,102337.47
2023-01-28T16:59:12.449Z,102344.00
2023-01-28T17:01:40.755Z,102337.31
2023-01-28T17:04:12.376Z,102342.28
2023-01-28T17:06:42.975Z,102341.06
2023-01-28T17:09:13.952Z,102343.09
2023-01-28T17:11:42.269Z,102339.31
2023-01-28T17:14:10.475Z,102350.88
2023-01-28T17:16:38.597Z,102357.41
2023-01-28T17:19:07.152Z,102356.38
2023-01-28T17:21:34.962Z,102346.41
2023-01-28T17:24:03.156Z,102338.41
2023-01-28T17:26:34.240Z,102334.03
2023-01-28T17:29:02.509Z,102348.81
2023-01-28T17:31:30.523Z,102360.88
2023-01-28T17:33:59.681Z,102367.34
2023-01-28T17:36:28.508Z,102361.25
2023-01-28T17:38:56.808Z,102368.94
2023-01-28T17:41:24.786Z,102366.22
2023-01-28T17:43:55.291Z,102366.59
2023-01-28T17:46:24.886Z,102367.13
2023-01-28T17:48:53.184Z,102364.19
2023-01-28T17:51:21.298Z,102360.47
2023-01-28T17:53:50.029Z,102346.41
2023-01-28T17:56:19.224Z,102352.34
2023-01-28T17:58:50.956Z,102350.16
2023-01-28T18:01:20.919Z,102359.66
2023-01-28T18:03:48.861Z,102363.31
2023-01-28T18:06:18.390Z,102364.53
2023-01-28T18:08:46.798Z,102366.41
2023-01-28T18:11:17.706Z,102367.53
2023-01-28T18:13:46.773Z,102370.97
2023-01-28T18:16:17.919Z,102374.75
2023-01-28T18:18:47.873Z,102372.03
2023-01-28T18:21:34.766Z,102382.53
2023-01-28T18:24:09.869Z,102396.47
2023-01-28T18:26:38.354Z,102388.28
2023-01-28T18:29:06.123Z,102396.28
2023-01-28T18:32:01.402Z,102391.97
2023-01-28T18:34:31.729Z,102387.19
2023-01-28T18:37:00.197Z,102376.91
2023-01-28T18:39:31.302Z,102380.09
2023-01-28T18:42:00.263Z,102376.59
2023-01-28T18:44:31.334Z,102373.69
2023-01-28T18:46:59.394Z,102377.75
2023-01-28T18:49:27.719Z,102381.16
2023-01-28T18:51:57.161Z,102380.09
2023-01-28T18:54:25.168Z,102379.75
2023-01-28T18:56:53.033Z,102377.88
2023-01-28T18:59:21.277Z,102384.13
2023-01-28T19:01:49.869Z,102387.91
2023-01-28T19:04:20.826Z,102390.31
2023-01-28T19:06:49.168Z,102387.16
2023-01-28T19:09:18.747Z,102393.50
2023-01-28T19:11:48.351Z,102396.06
2023-01-28T19:14:16.455Z,102407.69
2023-01-28T19:16:45.313Z,102409.28
2023-01-28T19:19:13.616Z,102406.25
2023-01-28T19:21:41.477Z,102401.56
2023-01-28T19:24:11.966Z,102402.88
2023-01-28T19:26:42.700Z,102401.22
2023-01-28T19:29:16.152Z,102413.06
2023-01-28T19:31:48.388Z,102411.94
2023-01-28T19:34:16.703Z,102402.69
2023-01-28T19:36:44.744Z,102394.41
2023-01-28T19:39:13.271Z,102386.81
2023-01-28T19:41:43.058Z,102383.13
2023-01-28T19:44:11.290Z,102385.31
2023-01-28T19:46:41.241Z,102379.97
2023-01-28T19:49:10.633Z,102374.28
2023-01-28T19:51:38.473Z,102374.84
2023-01-28T19:54:06.798Z,102372.94
2023-01-28T19:56:36.059Z,102372.06
2023-01-28T19:59:05.903Z,102370.34
2023-01-28T20:01:35.919Z,102359.50
2023-01-28T20:04:04.758Z,102362.63
2023-01-28T20:06:33.277Z,102361.88
2023-01-28T20:09:03.466Z,102354.91
2023-01-28T20:11:31.449Z,102350.84
2023-01-28T20:13:59.888Z,102357.47
2023-01-28T20:16:31.466Z,102344.78
2023-01-28T20:19:01.404Z,102344.59
2023-01-28T20:21:30.826Z,102342.13
2023-01-28T20:24:00.289Z,102352.59
2023-01-28T20:26:31.192Z,102348.47
2023-01-28T20:29:01.875Z,102342.44
2023-01-28T20:31:32.858Z,102346.53
2023-01-28T20:34:01.769Z,102350.16
2023-01-28T20:36:29.776Z,102341.97
2023-01-28T20:39:00.112Z,102339.22
2023-01-28T20:41:28.634Z,102345.75
2023-01-28T20:43:57.785Z,102348.88
2023-01-28T20:46:28.811Z,102343.34
2023-01-28T20:48:59.594Z,102344.25
2023-01-28T20:51:31.064Z,102349.81
2023-01-28T20:54:00.573Z,102351.97
2023-01-28T20:56:30.024Z,102360.13
2023-01-28T20:58:59.990Z,102367.44
2023-01-28T21:01:29.958Z,102355.59
2023-01-28T21:03:59.298Z,102360.38
2023-01-28T21:06:28.122Z,102339.97
2023-01-28T21:08:56.991Z,102345.22
2023-01-28T21:11:27.051Z,102341.28
2023-01-28T21:13:55.061Z,102343.16
2023-01-28T21:16:25.182Z,102339.13
2023-01-28T21:18:55.801Z,102327.31
2023-01-28T21:21:26.465Z,102321.94
2023-01-28T21:23:57.668Z,102320.19
2023-01-28T21:26:25.831Z,102320.00
2023-01-28T21:28:53.962Z,102311.13
2023-01-28T21:31:23.869Z,102310.66
2023-01-28T21:33:53.101Z,102307.94
2023-01-28T21:36:21.640Z,102316.69
2023-01-28T21:38:53.327Z,102321.19
2023-01-28T21:41:21.177Z,102313.78
2023-01-28T21:43:52.086Z,102305.69
2023-01-28T21:46:20.054Z,102308.47
2023-01-28T21:48:48.155Z,102307.34
2023-01-28T21:51:33.580Z,102308.34
2023-01-28T21:54:03.365Z,102310.81
2023-01-28T21:56:31.456Z,102308.34
2023-01-28T21:59:17.076Z,102319.41
2023-01-28T22:01:45.129Z,102302.81
2023-01-28T22:04:13.391Z,102306.38
2023-01-28T22:06:42.134Z,102305.13
2023-01-28T22:09:13.582Z,102315.09
2023-01-28T22:11:42.723Z,102316.81
2023-01-28T22:14:11.088Z,102311.97
2023-01-28T22:16:42.365Z,102301.91
2023-01-28T22:19:14.787Z,102306.00
2023-01-28T22:21:44.847Z,102334.22
2023-01-28T22:24:16.521Z,102332.34
2023-01-28T22:26:45.605Z,102311.00
2023-01-28T22:29:14.910Z,102305.53
2023-01-28T22:31:43.475Z,102305.84
2023-01-28T22:34:14.270Z,102310.25
2023-01-28T22:36:42.528Z,102311.13
2023-01-28T22:39:16.321Z,102298.16
2023-01-28T22:41:46.720Z,102304.97
2023-01-28T22:44:16.220Z,102303.59
2023-01-28T22:46:44.354Z,102297.00
2023-01-28T22:49:14.829Z,102288.88
2023-01-28T22:51:42.675Z,102288.13
2023-01-28T22:54:11.975Z,102297.03
2023-01-28T22:56:41.575Z,102300.41
2023-01-28T22:59:11.070Z,102294.47
2023-01-28T23:01:40.051Z,102289.81
2023-01-28T23:04:07.984Z,102290.72
2023-01-28T23:06:37.270Z,102292.81
2023-01-28T23:09:05.804Z,102300.44
2023-01-28T23:11:33.698Z,102296.75
2023-01-28T23:14:21.802Z,102290.91
2023-01-28T23:17:08.097Z,102284.88
2023-01-28T23:19:53.906Z,102293.66
2023-01-28T23:22:42.099Z,102290.97
2023-01-28T23:25:10.851Z,102290.81
2023-01-28T23:27:39.105Z,102298.06
2023-01-28T23:30:10.527Z,102297.56
2023-01-28T23:32:40.555Z,102290.13
2023-01-28T23:35:09.000Z,102285.63
2023-01-28T23:37:36.913Z,102282.84
2023-01-28T23:40:05.452Z,102276.19
2023-01-28T23:42:33.383Z,102275.88
2023-01-28T23:45:01.174Z,102272.69
2023-01-28T23:47:30.776Z,102274.44
2023-01-28T23:49:59.316Z,102264.84
2023-01-28T23:52:27.384Z,102270.09
2023-01-28T23:54:55.246Z,102264.53
2023-01-28T23:57:23.263Z,102260.06
2023-01-28T23:59:51.755Z,102259.94
